createdAt,value
2022-12-18T00:02:18.516Z,102399.97
2022-12-18T00:04:48.086Z,102404.97
2022-12-18T00:07:17.248Z,102403.19
2022-12-18T00:09:47.718Z,102404.53
2022-12-18T00:14:52.958Z,102420.03
2022-12-18T00:17:22.375Z,102430.31
2022-12-18T00:19:51.945Z,102421.41
2022-12-18T00:22:21.273Z,102421.69
2022-12-18T00:24:50.697Z,102419.75
2022-12-18T00:27:21.242Z,102416.75
2022-12-18T00:29:51.340Z,102423.84
2022-12-18T00:32:20.640Z,102423.78
2022-12-18T00:34:50.027Z,102431.31
2022-12-18T00:37:20.346Z,102428.53
2022-12-18T00:39:53.917Z,102427.63
2022-12-18T00:42:42.098Z,102428.25
2022-12-18T00:45:13.107Z,102437.50
2022-12-18T00:47:42.892Z,102434.94
2022-12-18T00:50:12.698Z,102433.00
2022-12-18T00:52:41.903Z,102437.50
2022-12-18T00:55:11.849Z,102434.94
2022-12-18T00:57:42.803Z,102448.50
2022-12-18T01:00:15.984Z,102446.88
2022-12-18T01:02:45.635Z,102448.59
2022-12-18T01:05:16.512Z,102444.34
2022-12-18T01:07:45.754Z,102441.81
2022-12-18T01:10:15.717Z,102434.38
2022-12-18T01:12:47.075Z,102450.25
2022-12-18T01:15:17.407Z,102453.16
2022-12-18T01:17:46.573Z,102454.78
2022-12-18T01:20:16.759Z,102454.78
2022-12-18T01:22:46.035Z,102466.25
2022-12-18T01:25:15.423Z,102461.78
2022-12-18T01:27:47.548Z,102466.94
2022-12-18T01:30:17.144Z,102459.16
2022-12-18T01:32:46.471Z,102459.09
2022-12-18T01:35:15.909Z,102462.69
2022-12-18T01:37:45.081Z,102463.59
2022-12-18T01:40:15.072Z,102472.81
2022-12-18T01:42:44.224Z,102469.53
2022-12-18T01:45:30.612Z,102464.31
2022-12-18T01:48:02.671Z,102462.50
2022-12-18T01:50:35.047Z,102474.44
2022-12-18T01:53:08.634Z,102466.69
2022-12-18T01:55:44.782Z,102459.09
2022-12-18T01:58:15.714Z,102464.03
2022-12-18T02:00:46.881Z,102470.28
2022-12-18T02:03:16.448Z,102474.16
2022-12-18T02:05:51.588Z,102480.19
2022-12-18T02:08:26.626Z,102478.22
2022-12-18T02:11:07.120Z,102483.69
2022-12-18T02:13:46.073Z,102485.88
2022-12-18T02:16:23.893Z,102490.47
2022-12-18T02:19:08.898Z,102491.44
2022-12-18T02:22:05.944Z,102490.59
2022-12-18T02:24:43.467Z,102493.38
2022-12-18T02:27:15.398Z,102488.16
2022-12-18T02:29:56.029Z,102493.69
2022-12-18T02:32:29.761Z,102496.34
2022-12-18T02:35:00.601Z,102500.59
2022-12-18T02:37:33.635Z,102498.97
2022-12-18T02:40:07.479Z,102504.25
2022-12-18T02:42:40.755Z,102505.38
2022-12-18T02:45:12.470Z,102503.09
2022-12-18T02:47:45.557Z,102503.25
2022-12-18T02:50:24.771Z,102503.38
2022-12-18T02:53:08.649Z,102505.69
2022-12-18T02:55:55.844Z,102503.09
2022-12-18T02:58:34.211Z,102509.44
2022-12-18T03:01:16.231Z,102519.88
2022-12-18T03:03:52.264Z,102522.63
2022-12-18T03:06:27.559Z,102518.38
2022-12-18T03:09:01.649Z,102525.38
2022-12-18T03:11:52.742Z,102521.81
2022-12-18T03:14:26.368Z,102516.09
2022-12-18T03:17:00.292Z,102514.22
2022-12-18T03:19:34.036Z,102521.31
2022-12-18T03:22:08.167Z,102524.03
2022-12-18T03:24:48.600Z,102532.84
2022-12-18T03:27:20.877Z,102523.06
2022-12-18T03:33:56.130Z,102536.09
2022-12-18T03:36:32.635Z,102538.69
2022-12-18T03:39:02.067Z,102542.16
2022-12-18T03:41:35.821Z,102545.97
2022-12-18T03:44:34.604Z,102555.00
2022-12-18T03:47:10.089Z,102551.66
2022-12-18T03:49:47.221Z,102550.97
2022-12-18T03:52:26.295Z,102556.72
2022-12-18T03:54:59.438Z,102555.97
2022-12-18T03:57:33.141Z,102566.78
2022-12-18T04:00:06.703Z,102560.06
2022-12-18T04:02:48.308Z,102563.66
2022-12-18T04:05:28.339Z,102564.66
2022-12-18T04:07:59.509Z,102569.16
2022-12-18T04:10:30.025Z,102574.53
2022-12-18T04:13:01.194Z,102579.88
2022-12-18T04:15:31.426Z,102571.38
2022-12-18T04:18:03.262Z,102576.81
2022-12-18T04:20:39.514Z,102579.44
2022-12-18T04:23:09.074Z,102571.88
2022-12-18T04:25:39.441Z,102572.03
2022-12-18T04:28:13.136Z,102576.44
2022-12-18T04:30:42.638Z,102580.16
2022-12-18T04:33:15.701Z,102581.13
2022-12-18T04:35:45.456Z,102584.56
2022-12-18T04:38:15.998Z,102590.66
2022-12-18T04:40:45.630Z,102590.75
2022-12-18T04:43:23.908Z,102586.56
2022-12-18T04:45:53.202Z,102597.91
2022-12-18T04:48:24.219Z,102589.91
2022-12-18T04:50:53.477Z,102597.84
2022-12-18T04:53:22.908Z,102596.78
2022-12-18T04:55:52.257Z,102594.94
2022-12-18T04:58:21.907Z,102598.38
2022-12-18T05:00:51.057Z,102596.66
2022-12-18T05:03:22.073Z,102606.28
2022-12-18T05:05:53.131Z,102608.78
2022-12-18T05:08:22.865Z,102602.59
2022-12-18T05:10:52.149Z,102605.03
2022-12-18T05:13:21.659Z,102618.09
2022-12-18T05:15:54.991Z,102621.34
2022-12-18T05:18:26.562Z,102627.38
2022-12-18T05:20:56.499Z,102622.38
2022-12-18T05:23:27.201Z,102623.06
2022-12-18T05:25:58.106Z,102628.97
2022-12-18T05:28:29.065Z,102634.88
2022-12-18T05:31:01.045Z,102634.88
2022-12-18T05:33:33.734Z,102638.44
2022-12-18T05:36:08.713Z,102642.91
2022-12-18T05:38:40.265Z,102640.22
2022-12-18T05:41:09.862Z,102653.28
2022-12-18T05:43:40.282Z,102645.50
2022-12-18T05:46:13.491Z,102652.19
2022-12-18T05:48:44.873Z,102661.81
2022-12-18T05:51:15.652Z,102660.09
2022-12-18T05:53:46.243Z,102662.63
2022-12-18T05:56:16.200Z,102664.34
2022-12-18T05:58:46.165Z,102670.16
2022-12-18T06:01:17.112Z,102664.28
2022-12-18T06:03:48.289Z,102665.25
2022-12-18T06:06:19.959Z,102681.56
2022-12-18T06:08:52.224Z,102673.97
2022-12-18T06:11:23.891Z,102672.13
2022-12-18T06:13:58.224Z,102678.09
2022-12-18T06:16:28.570Z,102684.13
2022-12-18T06:19:01.102Z,102678.91
2022-12-18T06:21:31.941Z,102699.88
2022-12-18T06:24:02.902Z,102690.41
2022-12-18T06:26:31.871Z,102694.81
2022-12-18T06:29:01.278Z,102692.19
2022-12-18T06:31:30.484Z,102692.78
2022-12-18T06:34:01.696Z,102694.88
2022-12-18T06:36:31.479Z,102700.94
2022-12-18T06:39:01.119Z,102705.09
2022-12-18T06:41:30.246Z,102713.16
2022-12-18T06:44:00.784Z,102720.13
2022-12-18T06:46:30.136Z,102728.47
2022-12-18T06:49:01.009Z,102731.31
2022-12-18T06:51:30.268Z,102726.84
2022-12-18T06:53:59.742Z,102728.84
2022-12-18T06:56:29.157Z,102738.31
2022-12-18T06:58:58.832Z,102734.31
2022-12-18T07:01:28.057Z,102745.94
2022-12-18T07:03:58.922Z,102740.59
2022-12-18T07:06:29.734Z,102745.81
2022-12-18T07:08:59.173Z,102758.97
2022-12-18T07:11:28.422Z,102751.13
2022-12-18T07:13:57.889Z,102760.72
2022-12-18T07:16:29.387Z,102773.13
2022-12-18T07:18:59.510Z,102773.00
2022-12-18T07:21:30.233Z,102771.19
2022-12-18T07:24:00.302Z,102773.56
2022-12-18T07:26:29.454Z,102776.41
2022-12-18T07:28:59.860Z,102772.16
2022-12-18T07:31:29.158Z,102775.75
2022-12-18T07:33:59.358Z,102774.16
2022-12-18T07:36:30.187Z,102778.06
2022-12-18T07:38:59.908Z,102779.69
2022-12-18T07:41:29.039Z,102785.09
2022-12-18T07:43:58.609Z,102777.25
2022-12-18T07:46:27.831Z,102792.09
2022-12-18T07:48:58.681Z,102798.91
2022-12-18T07:51:27.831Z,102795.53
2022-12-18T07:53:59.850Z,102802.47
2022-12-18T07:56:31.249Z,102804.06
2022-12-18T07:59:04.190Z,102793.75
2022-12-18T08:01:33.578Z,102788.50
2022-12-18T08:04:03.172Z,102794.72
2022-12-18T08:06:32.665Z,102799.28
2022-12-18T08:09:03.657Z,102802.72
2022-12-18T08:11:33.101Z,102804.66
2022-12-18T08:14:02.557Z,102801.06
2022-12-18T08:16:32.184Z,102807.94
2022-12-18T08:19:01.529Z,102812.81
2022-12-18T08:21:32.729Z,102817.81
2022-12-18T08:24:04.909Z,102813.66
2022-12-18T08:26:34.265Z,102822.59
2022-12-18T08:29:03.751Z,102820.28
2022-12-18T08:31:34.042Z,102825.75
2022-12-18T08:34:03.531Z,102824.34
2022-12-18T08:36:32.803Z,102823.66
2022-12-18T08:39:03.884Z,102827.34
2022-12-18T08:41:33.411Z,102830.09
2022-12-18T08:44:20.639Z,102819.78
2022-12-18T08:46:49.955Z,102814.69
2022-12-18T08:49:19.372Z,102817.41
2022-12-18T08:51:48.759Z,102815.75
2022-12-18T08:54:19.526Z,102823.00
2022-12-18T08:56:48.802Z,102818.00
2022-12-18T08:59:20.168Z,102821.63
2022-12-18T09:01:50.701Z,102823.50
2022-12-18T09:04:20.722Z,102821.78
2022-12-18T09:06:50.025Z,102824.34
2022-12-18T09:09:21.065Z,102821.13
2022-12-18T09:11:50.296Z,102836.97
2022-12-18T09:14:20.092Z,102843.69
2022-12-18T09:16:49.352Z,102831.63
2022-12-18T09:19:18.756Z,102834.41
2022-12-18T09:21:48.580Z,102825.78
2022-12-18T09:24:20.292Z,102822.78
2022-12-18T09:26:51.570Z,102826.38
2022-12-18T09:29:25.188Z,102838.03
2022-12-18T09:31:54.740Z,102834.09
2022-12-18T09:34:24.163Z,102850.03
2022-12-18T09:36:53.515Z,102849.13
2022-12-18T09:39:24.522Z,102836.19
2022-12-18T09:41:57.126Z,102840.03
2022-12-18T09:44:30.104Z,102833.84
2022-12-18T09:47:14.499Z,102841.16
2022-12-18T09:49:47.504Z,102842.94
2022-12-18T09:52:21.812Z,102842.44
2022-12-18T09:54:57.374Z,102848.84
2022-12-18T09:57:28.068Z,102850.25
2022-12-18T10:00:01.495Z,102854.63
2022-12-18T10:02:40.936Z,102855.59
2022-12-18T10:05:14.084Z,102845.31
2022-12-18T10:07:54.367Z,102845.38
2022-12-18T10:10:29.580Z,102842.63
2022-12-18T10:13:10.541Z,102838.31
2022-12-18T10:15:49.164Z,102836.69
2022-12-18T10:18:32.324Z,102843.88
2022-12-18T10:21:11.840Z,102853.25
2022-12-18T10:23:49.975Z,102850.81
2022-12-18T10:26:21.793Z,102863.25
2022-12-18T10:28:53.338Z,102866.22
2022-12-18T10:31:25.485Z,102862.13
2022-12-18T10:33:56.614Z,102852.25
2022-12-18T10:36:27.492Z,102856.19
2022-12-18T10:39:10.019Z,102864.75
2022-12-18T10:41:41.261Z,102866.63
2022-12-18T10:44:18.442Z,102863.28
2022-12-18T10:46:50.212Z,102859.75
2022-12-18T10:49:25.263Z,102868.81
2022-12-18T10:52:06.653Z,102873.28
2022-12-18T10:54:37.602Z,102861.25
2022-12-18T10:57:36.010Z,102845.00
2022-12-18T11:00:28.905Z,102847.69
2022-12-18T11:03:00.336Z,102848.00
2022-12-18T11:05:32.786Z,102859.50
2022-12-18T11:08:03.316Z,102861.56
2022-12-18T11:10:35.764Z,102863.03
2022-12-18T11:13:22.612Z,102870.22
2022-12-18T11:15:52.846Z,102864.91
2022-12-18T11:18:28.289Z,102859.00
2022-12-18T11:21:00.634Z,102863.53
2022-12-18T11:23:30.666Z,102868.88
2022-12-18T11:26:03.250Z,102873.72
2022-12-18T11:28:42.040Z,102881.72
2022-12-18T11:31:25.450Z,102873.19
2022-12-18T11:36:53.286Z,102859.06
2022-12-18T11:39:26.854Z,102852.00
2022-12-18T11:42:12.429Z,102865.97
2022-12-18T11:44:49.688Z,102872.19
2022-12-18T11:47:27.958Z,102878.25
2022-12-18T11:50:02.231Z,102890.66
2022-12-18T11:52:40.559Z,102896.00
2022-12-18T11:55:16.186Z,102905.03
2022-12-18T11:57:57.389Z,102917.31
2022-12-18T12:00:28.993Z,102921.84
2022-12-18T12:03:27.919Z,102920.00
2022-12-18T12:06:09.100Z,102925.69
2022-12-18T12:08:55.183Z,102918.59
2022-12-18T12:11:35.744Z,102916.59
2022-12-18T12:14:31.224Z,102915.06
2022-12-18T12:17:13.385Z,102911.88
2022-12-18T12:19:50.404Z,102912.03
2022-12-18T12:22:30.293Z,102914.59
2022-12-18T12:25:21.164Z,102907.66
2022-12-18T12:28:02.328Z,102904.13
2022-12-18T12:30:40.178Z,102903.25
2022-12-18T12:33:24.448Z,102901.41
2022-12-18T12:36:03.156Z,102896.88
2022-12-18T12:38:37.748Z,102890.66
2022-12-18T12:41:30.733Z,102893.34
2022-12-18T12:44:02.959Z,102890.91
2022-12-18T12:46:37.657Z,102900.25
2022-12-18T12:49:16.655Z,102904.56
2022-12-18T12:51:50.677Z,102902.16
2022-12-18T12:54:24.665Z,102907.28
2022-12-18T12:57:00.124Z,102908.16
2022-12-18T12:59:39.758Z,102905.66
2022-12-18T13:02:22.454Z,102902.03
2022-12-18T13:05:03.339Z,102905.13
2022-12-18T13:07:41.096Z,102896.53
2022-12-18T13:10:28.080Z,102901.88
2022-12-18T13:12:58.806Z,102915.84
2022-12-18T13:15:33.783Z,102915.00
2022-12-18T13:18:21.910Z,102912.19
2022-12-18T13:21:04.500Z,102906.31
2022-12-18T13:23:39.125Z,102881.84
2022-12-18T13:26:39.039Z,102890.66
2022-12-18T13:29:08.906Z,102902.78
2022-12-18T13:32:24.456Z,102907.13
2022-12-18T13:35:27.907Z,102909.19
2022-12-18T13:37:59.011Z,102906.81
2022-12-18T13:40:58.408Z,102907.22
2022-12-18T13:43:39.018Z,102918.72
2022-12-18T13:46:21.914Z,102915.41
2022-12-18T13:49:03.933Z,102910.94
2022-12-18T13:51:37.252Z,102913.41
2022-12-18T13:54:20.841Z,102914.97
2022-12-18T13:56:51.797Z,102910.28
2022-12-18T13:59:24.766Z,102910.09
2022-12-18T14:01:57.694Z,102910.78
2022-12-18T14:04:30.869Z,102913.22
2022-12-18T14:07:05.024Z,102905.28
2022-12-18T14:09:40.555Z,102911.19
2022-12-18T14:12:34.224Z,102900.75
2022-12-18T14:15:04.909Z,102896.53
2022-12-18T14:17:38.485Z,102901.09
2022-12-18T14:20:16.641Z,102899.06
2022-12-18T14:22:48.185Z,102905.50
2022-12-18T14:25:21.952Z,102911.75
2022-12-18T14:27:54.521Z,102901.00
2022-12-18T14:30:30.111Z,102905.97
2022-12-18T14:33:07.789Z,102909.16
2022-12-18T14:35:40.563Z,102900.66
2022-12-18T14:38:22.415Z,102905.72
2022-12-18T14:40:58.523Z,102902.25
2022-12-18T14:43:28.674Z,102902.19
2022-12-18T14:45:59.759Z,102898.44
2022-12-18T14:48:38.816Z,102897.69
2022-12-18T14:51:18.334Z,102901.13
2022-12-18T14:53:54.282Z,102905.69
2022-12-18T14:56:29.192Z,102912.28
2022-12-18T14:59:01.206Z,102924.84
2022-12-18T15:01:34.522Z,102922.63
2022-12-18T15:04:05.615Z,102936.75
2022-12-18T15:06:38.514Z,102946.50
2022-12-18T15:09:23.457Z,102945.19
2022-12-18T15:11:59.744Z,102947.94
2022-12-18T15:14:42.206Z,102948.69
2022-12-18T15:17:20.140Z,102956.69
2022-12-18T15:19:51.138Z,102956.53
2022-12-18T15:22:27.774Z,102945.91
2022-12-18T15:24:58.147Z,102948.22
2022-12-18T15:27:36.572Z,102946.00
2022-12-18T15:30:20.384Z,102937.16
2022-12-18T15:32:51.031Z,102950.47
2022-12-18T15:35:23.036Z,102959.44
2022-12-18T15:37:55.118Z,102948.38
2022-12-18T15:40:26.036Z,102952.69
2022-12-18T15:43:15.581Z,102952.16
2022-12-18T15:45:44.878Z,102955.38
2022-12-18T15:48:23.209Z,102955.22
2022-12-18T15:50:57.878Z,102961.13
2022-12-18T15:53:31.757Z,102953.63
2022-12-18T15:56:18.594Z,102964.16
2022-12-18T15:58:49.915Z,102959.53
2022-12-18T16:01:22.777Z,102950.88
2022-12-18T16:03:52.674Z,102958.78
2022-12-18T16:06:21.811Z,102952.28
2022-12-18T16:08:51.465Z,102956.47
2022-12-18T16:11:39.243Z,102947.47
2022-12-18T16:14:20.457Z,102953.59
2022-12-18T16:16:51.433Z,102964.94
2022-12-18T16:19:22.189Z,102966.50
2022-12-18T16:21:53.044Z,102969.59
2022-12-18T16:24:24.227Z,102969.41
2022-12-18T16:26:54.195Z,102966.06
2022-12-18T16:29:28.095Z,102950.41
2022-12-18T16:31:58.138Z,102954.13
2022-12-18T16:34:29.780Z,102948.84
2022-12-18T16:37:05.631Z,102945.13
2022-12-18T16:39:37.379Z,102956.22
2022-12-18T16:42:09.161Z,102964.75
2022-12-18T16:44:40.286Z,102967.44
2022-12-18T16:47:11.061Z,102955.88
2022-12-18T16:49:43.753Z,102945.09
2022-12-18T16:52:13.146Z,102939.69
2022-12-18T16:54:42.884Z,102935.56
2022-12-18T16:57:15.300Z,102931.00
2022-12-18T16:59:46.763Z,102925.44
2022-12-18T17:02:19.100Z,102925.38
2022-12-18T17:04:54.680Z,102926.38
2022-12-18T17:07:25.007Z,102927.25
2022-12-18T17:09:55.544Z,102927.25
2022-12-18T17:12:25.146Z,102920.91
2022-12-18T17:14:55.981Z,102924.78
2022-12-18T17:17:25.933Z,102921.00
2022-12-18T17:19:55.349Z,102930.59
2022-12-18T17:22:24.662Z,102932.22
2022-12-18T17:24:54.020Z,102927.63
2022-12-18T17:27:23.443Z,102915.78
2022-12-18T17:29:52.601Z,102918.56
2022-12-18T17:32:23.447Z,102909.22
2022-12-18T17:34:52.726Z,102910.56
2022-12-18T17:37:22.405Z,102905.72
2022-12-18T17:39:51.746Z,102909.66
2022-12-18T17:42:21.319Z,102920.00
2022-12-18T17:44:50.621Z,102919.91
2022-12-18T17:47:20.182Z,102932.84
2022-12-18T17:49:52.253Z,102921.44
2022-12-18T17:52:23.419Z,102917.56
2022-12-18T17:54:52.798Z,102917.41
2022-12-18T17:57:22.455Z,102912.81
2022-12-18T17:59:54.501Z,102911.63
2022-12-18T18:02:25.158Z,102914.50
2022-12-18T18:04:56.444Z,102912.50
2022-12-18T18:07:26.027Z,102913.38
2022-12-18T18:10:49.872Z,102915.25
2022-12-18T18:14:51.228Z,102930.22
2022-12-18T18:17:23.295Z,102928.91
2022-12-18T18:20:47.447Z,102926.19
2022-12-18T18:23:23.217Z,102931.31
2022-12-18T18:25:52.799Z,102934.75
2022-12-18T18:28:23.095Z,102936.88
2022-12-18T18:30:52.371Z,102940.75
2022-12-18T18:33:22.185Z,102944.69
2022-12-18T18:35:54.813Z,102935.16
2022-12-18T18:38:26.240Z,102939.31
2022-12-18T18:41:00.482Z,102933.81
2022-12-18T18:43:30.998Z,102936.81
2022-12-18T18:46:01.814Z,102938.19
2022-12-18T18:48:35.658Z,102939.28
2022-12-18T18:51:09.396Z,102948.28
2022-12-18T18:53:45.004Z,102943.38
2022-12-18T18:56:50.141Z,102942.50
2022-12-18T18:59:07.059Z,102945.41
2022-12-18T19:01:36.647Z,102944.19
2022-12-18T19:04:07.936Z,102945.41
2022-12-18T19:06:37.380Z,102942.81
2022-12-18T19:09:09.136Z,102944.81
2022-12-18T19:11:57.074Z,102949.63
2022-12-18T19:14:26.899Z,102956.63
2022-12-18T19:16:56.155Z,102954.25
2022-12-18T19:19:27.126Z,102963.03
2022-12-18T19:21:56.442Z,102961.44
2022-12-18T19:24:27.601Z,102955.25
2022-12-18T19:26:58.117Z,102960.34
2022-12-18T19:29:27.897Z,102946.75
2022-12-18T19:31:57.046Z,102951.03
2022-12-18T19:34:26.896Z,102957.53
2022-12-18T19:36:59.955Z,102945.44
2022-12-18T19:39:31.415Z,102955.63
2022-12-18T19:42:00.700Z,102953.94
2022-12-18T19:44:30.153Z,102962.66
2022-12-18T19:46:59.528Z,102954.75
2022-12-18T19:49:28.950Z,102967.06
2022-12-18T19:51:58.584Z,102956.94
2022-12-18T19:54:28.225Z,102959.97
2022-12-18T19:56:58.900Z,102956.84
2022-12-18T19:59:28.535Z,102956.66
2022-12-18T20:01:57.889Z,102958.66
2022-12-18T20:04:27.561Z,102966.25
2022-12-18T20:06:57.676Z,102959.66
2022-12-18T20:09:27.287Z,102964.94
2022-12-18T20:11:57.937Z,102948.34
2022-12-18T20:14:27.711Z,102962.03
2022-12-18T20:16:57.839Z,102953.84
2022-12-18T20:19:30.026Z,102957.25
2022-12-18T20:21:59.345Z,102943.44
2022-12-18T20:24:28.887Z,102941.25
2022-12-18T20:26:59.885Z,102946.63
2022-12-18T20:29:29.446Z,102949.25
2022-12-18T20:31:58.696Z,102951.53
2022-12-18T20:34:28.187Z,102960.31
2022-12-18T20:36:57.620Z,102957.16
2022-12-18T20:39:27.609Z,102961.44
2022-12-18T20:41:58.586Z,102961.75
2022-12-18T20:44:28.546Z,102964.81
2022-12-18T20:47:00.295Z,102961.53
2022-12-18T20:49:33.556Z,102958.22
2022-12-18T20:52:03.937Z,102964.03
2022-12-18T20:54:33.787Z,102971.81
2022-12-18T20:57:04.612Z,102968.00
2022-12-18T20:59:34.286Z,102970.88
2022-12-18T21:02:03.649Z,102969.78
2022-12-18T21:04:33.337Z,102977.69
2022-12-18T21:07:03.086Z,102982.00
2022-12-18T21:09:37.549Z,102977.63
2022-12-18T21:12:40.274Z,102976.50
2022-12-18T21:15:18.252Z,102976.72
2022-12-18T21:17:47.696Z,102976.13
2022-12-18T21:20:18.544Z,102970.81
2022-12-18T21:22:50.351Z,102981.31
2022-12-18T21:25:19.964Z,102992.53
2022-12-18T21:27:50.713Z,102995.44
2022-12-18T21:30:20.567Z,102988.13
2022-12-18T21:32:50.071Z,103000.03
2022-12-18T21:35:20.003Z,102989.78
2022-12-18T21:37:51.434Z,102991.78
2022-12-18T21:40:20.935Z,102995.44
2022-12-18T21:43:09.003Z,103000.50
2022-12-18T21:45:38.759Z,103008.13
2022-12-18T21:48:08.141Z,103004.03
2022-12-18T21:50:37.697Z,102985.84
2022-12-18T21:53:07.058Z,102992.66
2022-12-18T21:55:36.662Z,102996.94
2022-12-18T21:58:09.596Z,103000.44
2022-12-18T22:00:39.106Z,103001.34
2022-12-18T22:03:18.821Z,102990.63
2022-12-18T22:05:50.598Z,102992.13
2022-12-18T22:08:31.539Z,102993.63
2022-12-18T22:11:01.122Z,102999.41
2022-12-18T22:13:31.680Z,102993.00
2022-12-18T22:16:01.139Z,102991.88
2022-12-18T22:18:30.373Z,102984.00
2022-12-18T22:21:03.286Z,102986.28
2022-12-18T22:23:33.177Z,102987.34
2022-12-18T22:26:02.586Z,102986.56
2022-12-18T22:28:51.581Z,102983.22
2022-12-18T22:31:21.120Z,102978.91
2022-12-18T22:33:51.163Z,102980.31
2022-12-18T22:36:20.711Z,102971.63
2022-12-18T22:38:51.597Z,102973.13
2022-12-18T22:41:23.280Z,102976.16
2022-12-18T22:43:53.766Z,102973.84
2022-12-18T22:46:25.139Z,102965.50
2022-12-18T22:48:54.669Z,102961.44
2022-12-18T22:51:24.098Z,102952.88
2022-12-18T22:53:53.378Z,102959.66
2022-12-18T22:56:24.783Z,102949.31
2022-12-18T22:58:55.292Z,102939.50
2022-12-18T23:01:27.485Z,102937.00
2022-12-18T23:03:56.838Z,102939.41
2022-12-18T23:06:28.127Z,102937.59
2022-12-18T23:08:58.711Z,102934.31
2022-12-18T23:11:28.555Z,102934.00
2022-12-18T23:13:59.178Z,102930.81
2022-12-18T23:16:29.428Z,102938.56
2022-12-18T23:18:58.809Z,102933.88
2022-12-18T23:21:28.425Z,102925.94
2022-12-18T23:23:58.438Z,102918.47
2022-12-18T23:26:28.038Z,102922.66
2022-12-18T23:28:58.974Z,102915.22
2022-12-18T23:31:30.897Z,102915.31
2022-12-18T23:34:01.894Z,102920.13
2022-12-18T23:36:33.987Z,102927.41
2022-12-18T23:39:28.886Z,102913.97
2022-12-18T23:42:00.350Z,102906.91
2022-12-18T23:44:31.414Z,102902.22
2022-12-18T23:47:00.984Z,102897.25
2022-12-18T23:49:30.134Z,102899.44
2022-12-18T23:52:00.144Z,102896.13
2022-12-18T23:54:33.557Z,102891.16
2022-12-18T23:57:03.717Z,102895.84
2022-12-18T23:59:34.216Z,102891.56
